sensor_id;sensor_type;location;lat;lon;timestamp;pressure;altitude;pressure_sealevel;temperature;humidity
50380;BME280;37474;59.468;18.040;2022-09-16T00:00:54;98424.88;;;9.44;100.00
50380;BME280;37474;59.468;18.040;2022-09-16T00:03:57;98422.41;;;9.52;100.00
50380;BME280;37474;59.468;18.040;2022-09-16T00:06:49;98421.16;;;9.56;100.00
50380;BME280;37474;59.468;18.040;2022-09-16T00:09:52;98433.94;;;9.69;100.00
50380;BME280;37474;59.468;18.040;2022-09-16T00:12:59;98427.59;;;9.71;100.00
50380;BME280;37474;59.468;18.040;2022-09-16T00:15:49;98412.47;;;9.65;100.00
50380;BME280;37474;59.468;18.040;2022-09-16T00:18:33;98433.38;;;9.75;100.00
50380;BME280;37474;59.468;18.040;2022-09-16T00:21:11;98416.84;;;9.84;100.00
50380;BME280;37474;59.468;18.040;2022-09-16T00:23:49;98417.97;;;9.72;100.00
50380;BME280;37474;59.468;18.040;2022-09-16T00:26:33;98422.38;;;9.81;100.00
50380;BME280;37474;59.468;18.040;2022-09-16T00:29:04;98432.53;;;9.84;100.00
50380;BME280;37474;59.468;18.040;2022-09-16T00:31:41;98425.94;;;9.80;100.00
50380;BME280;37474;59.468;18.040;2022-09-16T00:34:18;98428.97;;;9.75;100.00
50380;BME280;37474;59.468;18.040;2022-09-16T00:36:54;98427.88;;;9.78;100.00
50380;BME280;37474;59.468;18.040;2022-09-16T00:39:30;98416.88;;;9.65;100.00
50380;BME280;37474;59.468;18.040;2022-09-16T00:42:14;98417.97;;;9.72;100.00
50380;BME280;37474;59.468;18.040;2022-09-16T00:45:00;98408.63;;;9.69;100.00
50380;BME280;37474;59.468;18.040;2022-09-16T00:47:41;98414.81;;;9.68;100.00
50380;BME280;37474;59.468;18.040;2022-09-16T00:50:18;98429.94;;;9.74;100.00
50380;BME280;37474;59.468;18.040;2022-09-16T00:52:59;98421.56;;;9.71;100.00
50380;BME280;37474;59.468;18.040;2022-09-16T00:55:34;98436.81;;;9.85;100.00
50380;BME280;37474;59.468;18.040;2022-09-16T00:58:20;98424.03;;;9.72;100.00
50380;BME280;37474;59.468;18.040;2022-09-16T01:00:58;98428.84;;;9.77;100.00
50380;BME280;37474;59.468;18.040;2022-09-16T01:03:39;98425.97;;;9.61;100.00
50380;BME280;37474;59.468;18.040;2022-09-16T01:06:19;98425.94;;;9.80;100.00
50380;BME280;37474;59.468;18.040;2022-09-16T01:08:59;98418.94;;;9.71;100.00
50380;BME280;37474;59.468;18.040;2022-09-16T01:11:34;98413.44;;;9.74;100.00
50380;BME280;37474;59.468;18.040;2022-09-16T01:14:09;98399.25;;;9.76;100.00
50380;BME280;37474;59.468;18.040;2022-09-16T01:17:01;98415.59;;;9.88;100.00
50380;BME280;37474;59.468;18.040;2022-09-16T01:19:56;98410.78;;;9.93;100.00
50380;BME280;37474;59.468;18.040;2022-09-16T01:22:46;98425.34;;;9.96;100.00
50380;BME280;37474;59.468;18.040;2022-09-16T01:25:35;98420.28;;;9.94;100.00
50380;BME280;37474;59.468;18.040;2022-09-16T01:28:33;98419.75;;;9.81;100.00
50380;BME280;37474;59.468;18.040;2022-09-16T01:31:16;98403.66;;;9.76;100.00
50380;BME280;37474;59.468;18.040;2022-09-16T01:33:54;98417.41;;;9.78;100.00
50380;BME280;37474;59.468;18.040;2022-09-16T01:36:37;98402.56;;;9.69;100.00
50380;BME280;37474;59.468;18.040;2022-09-16T01:39:19;98421.03;;;9.58;100.00
50380;BME280;37474;59.468;18.040;2022-09-16T01:42:15;98428.03;;;9.67;100.00
50380;BME280;37474;59.468;18.040;2022-09-16T01:44:53;98434.75;;;9.69;100.00
50380;BME280;37474;59.468;18.040;2022-09-16T01:47:33;98432.28;;;9.68;100.00
50380;BME280;37474;59.468;18.040;2022-09-16T01:50:08;98431.16;;;9.80;100.00
50380;BME280;37474;59.468;18.040;2022-09-16T01:52:48;98430.59;;;9.86;100.00
50380;BME280;37474;59.468;18.040;2022-09-16T01:55:27;98428.69;;;9.78;100.00
50380;BME280;37474;59.468;18.040;2022-09-16T01:58:01;98431.28;;;9.88;100.00
50380;BME280;37474;59.468;18.040;2022-09-16T02:00:32;98422.47;;;9.89;100.00
50380;BME280;37474;59.468;18.040;2022-09-16T02:03:06;98430.31;;;9.99;100.00
50380;BME280;37474;59.468;18.040;2022-09-16T02:05:41;98426.63;;;9.82;100.00
50380;BME280;37474;59.468;18.040;2022-09-16T02:08:17;98429.75;;;9.95;100.00
50380;BME280;37474;59.468;18.040;2022-09-16T02:10:52;98423.97;;;10.01;100.00
50380;BME280;37474;59.468;18.040;2022-09-16T02:13:27;98416.28;;;9.90;100.00
50380;BME280;37474;59.468;18.040;2022-09-16T02:16:00;98425.63;;;10.02;100.00
50380;BME280;37474;59.468;18.040;2022-09-16T02:18:40;98419.88;;;9.79;100.00
50380;BME280;37474;59.468;18.040;2022-09-16T02:21:19;98430.34;;;9.79;100.00
50380;BME280;37474;59.468;18.040;2022-09-16T02:23:58;98426.59;;;9.92;100.00
50380;BME280;37474;59.468;18.040;2022-09-16T02:26:34;98425.50;;;9.94;100.00
50380;BME280;37474;59.468;18.040;2022-09-16T02:29:10;98429.19;;;10.01;100.00
50380;BME280;37474;59.468;18.040;2022-09-16T02:31:43;98426.50;;;9.83;100.00
50380;BME280;37474;59.468;18.040;2022-09-16T02:34:17;98422.75;;;9.86;100.00
50380;BME280;37474;59.468;18.040;2022-09-16T02:36:52;98420.97;;;9.87;100.00
50380;BME280;37474;59.468;18.040;2022-09-16T02:39:27;98430.59;;;9.86;100.00
50380;BME280;37474;59.468;18.040;2022-09-16T02:41:59;98429.25;;;9.82;100.00
50380;BME280;37474;59.468;18.040;2022-09-16T02:44:28;98434.75;;;9.79;100.00
50380;BME280;37474;59.468;18.040;2022-09-16T02:46:58;98425.81;;;9.81;100.00
50380;BME280;37474;59.468;18.040;2022-09-16T02:49:37;98430.59;;;9.86;100.00
50380;BME280;37474;59.468;18.040;2022-09-16T02:52:13;98430.59;;;9.86;100.00
50380;BME280;37474;59.468;18.040;2022-09-16T02:54:50;98428.56;;;9.80;100.00
50380;BME280;37474;59.468;18.040;2022-09-16T02:57:19;98419.06;;;9.79;100.00
50380;BME280;37474;59.468;18.040;2022-09-16T02:59:52;98428.84;;;9.77;100.00
50380;BME280;37474;59.468;18.040;2022-09-16T03:02:22;98430.34;;;9.79;100.00
50380;BME280;37474;59.468;18.040;2022-09-16T03:04:51;98429.25;;;9.82;100.00
50380;BME280;37474;59.468;18.040;2022-09-16T03:07:20;98427.03;;;9.87;100.00
50380;BME280;37474;59.468;18.040;2022-09-16T03:09:48;98414.63;;;9.89;100.00
50380;BME280;37474;59.468;18.040;2022-09-16T03:12:44;98426.75;;;9.90;100.00
50380;BME280;37474;59.468;18.040;2022-09-16T03:15:27;98426.75;;;9.90;100.00
50380;BME280;37474;59.468;18.040;2022-09-16T03:18:15;98432.78;;;10.00;100.00
50380;BME280;37474;59.468;18.040;2022-09-16T03:20:57;98428.50;;;9.99;100.00
50380;BME280;37474;59.468;18.040;2022-09-16T03:23:35;98435.00;;;9.95;100.00
50380;BME280;37474;59.468;18.040;2022-09-16T03:26:20;98433.63;;;9.91;100.00
50380;BME280;37474;59.468;18.040;2022-09-16T03:29:01;98432.25;;;9.87;100.00
50380;BME280;37474;59.468;18.040;2022-09-16T03:31:39;98429.06;;;9.93;100.00
50380;BME280;37474;59.468;18.040;2022-09-16T03:34:16;98433.78;;;9.90;100.00
50380;BME280;37474;59.468;18.040;2022-09-16T03:36:56;98438.16;;;9.89;100.00
50380;BME280;37474;59.468;18.040;2022-09-16T03:39:28;98438.72;;;9.83;100.00
50380;BME280;37474;59.468;18.040;2022-09-16T03:42:01;98430.72;;;9.94;100.00
50380;BME280;37474;59.468;18.040;2022-09-16T03:44:31;98435.41;;;9.91;100.00
50380;BME280;37474;59.468;18.040;2022-09-16T03:47:04;98437.59;;;9.95;100.00
50380;BME280;37474;59.468;18.040;2022-09-16T03:49:34;98439.66;;;10.01;100.00
50380;BME280;37474;59.468;18.040;2022-09-16T03:52:08;98428.13;;;9.94;100.00
50380;BME280;37474;59.468;18.040;2022-09-16T03:54:36;98432.38;;;9.95;100.00
50380;BME280;37474;59.468;18.040;2022-09-16T03:57:05;98428.41;;;9.91;100.00
50380;BME280;37474;59.468;18.040;2022-09-16T03:59:37;98436.09;;;9.93;100.00
50380;BME280;37474;59.468;18.040;2022-09-16T04:02:07;98440.66;;;9.91;100.00
50380;BME280;37474;59.468;18.040;2022-09-16T04:04:35;98430.88;;;9.83;100.00
50380;BME280;37474;59.468;18.040;2022-09-16T04:07:06;98438.84;;;9.91;100.00
50380;BME280;37474;59.468;18.040;2022-09-16T04:09:36;98427.03;;;9.87;100.00
50380;BME280;37474;59.468;18.040;2022-09-16T04:12:04;98444.94;;;9.82;100.00
50380;BME280;37474;59.468;18.040;2022-09-16T04:14:35;98429.81;;;9.76;100.00
50380;BME280;37474;59.468;18.040;2022-09-16T04:17:05;98440.25;;;9.76;100.00
50380;BME280;37474;59.468;18.040;2022-09-16T04:19:35;98433.25;;;9.76;100.00
50380;BME280;37474;59.468;18.040;2022-09-16T04:22:06;98435.88;;;9.67;100.00
50380;BME280;37474;59.468;18.040;2022-09-16T04:24:36;98442.31;;;9.82;100.00
50380;BME280;37474;59.468;18.040;2022-09-16T04:27:04;98445.22;;;9.79;100.00
50380;BME280;37474;59.468;18.040;2022-09-16T04:29:32;98439.97;;;9.79;100.00
50380;BME280;37474;59.468;18.040;2022-09-16T04:32:02;98445.47;;;9.86;100.00
50380;BME280;37474;59.468;18.040;2022-09-16T04:34:30;98435.03;;;9.76;100.00
50380;BME280;37474;59.468;18.040;2022-09-16T04:37:00;98448.50;;;9.81;100.00
50380;BME280;37474;59.468;18.040;2022-09-16T04:39:32;98439.84;;;9.80;100.00
50380;BME280;37474;59.468;18.040;2022-09-16T04:42:00;98438.75;;;9.73;100.00
50380;BME280;37474;59.468;18.040;2022-09-16T04:44:29;98436.53;;;9.78;100.00
50380;BME280;37474;59.468;18.040;2022-09-16T04:46:59;98448.78;;;9.78;100.00
50380;BME280;37474;59.468;18.040;2022-09-16T04:49:27;98440.81;;;9.79;100.00
50380;BME280;37474;59.468;18.040;2022-09-16T04:51:57;98448.22;;;9.84;100.00
50380;BME280;37474;59.468;18.040;2022-09-16T04:54:27;98447.94;;;9.87;100.00
50380;BME280;37474;59.468;18.040;2022-09-16T04:56:57;98451.94;;;9.91;100.00
50380;BME280;37474;59.468;18.040;2022-09-16T04:59:27;98443.00;;;9.84;100.00
50380;BME280;37474;59.468;18.040;2022-09-16T05:01:57;98452.91;;;9.90;100.00
50380;BME280;37474;59.468;18.040;2022-09-16T05:04:25;98447.94;;;9.97;100.00
50380;BME280;37474;59.468;18.040;2022-09-16T05:06:55;98450.69;;;9.95;100.00
50380;BME280;37474;59.468;18.040;2022-09-16T05:09:25;98451.50;;;10.05;100.00
50380;BME280;37474;59.468;18.040;2022-09-16T05:11:58;98446.41;;;10.04;100.00
50380;BME280;37474;59.468;18.040;2022-09-16T05:14:30;98464.44;;;10.07;100.00
50380;BME280;37474;59.468;18.040;2022-09-16T05:16:58;98452.84;;;10.09;100.00
50380;BME280;37474;59.468;18.040;2022-09-16T05:19:26;98445.97;;;10.08;100.00
50380;BME280;37474;59.468;18.040;2022-09-16T05:21:59;98458.78;;;10.11;100.00
50380;BME280;37474;59.468;18.040;2022-09-16T05:24:33;98452.56;;;10.12;100.00
50380;BME280;37474;59.468;18.040;2022-09-16T05:27:05;98448.16;;;10.13;100.00
50380;BME280;37474;59.468;18.040;2022-09-16T05:29:33;98459.44;;;10.13;100.00
50380;BME280;37474;59.468;18.040;2022-09-16T05:32:01;98453.69;;;10.20;100.00
50380;BME280;37474;59.468;18.040;2022-09-16T05:34:31;98461.94;;;10.25;100.00
50380;BME280;37474;59.468;18.040;2022-09-16T05:37:01;98446.78;;;10.28;100.00
50380;BME280;37474;59.468;18.040;2022-09-16T05:39:29;98460.94;;;10.35;100.00
50380;BME280;37474;59.468;18.040;2022-09-16T05:41:59;98463.00;;;10.32;100.00
50380;BME280;37474;59.468;18.040;2022-09-16T05:44:30;98463.56;;;10.35;100.00
50380;BME280;37474;59.468;18.040;2022-09-16T05:46:57;98453.13;;;10.26;100.00
50380;BME280;37474;59.468;18.040;2022-09-16T05:49:29;98470.44;;;10.36;100.00
50380;BME280;37474;59.468;18.040;2022-09-16T05:51:59;98465.19;;;10.36;100.00
50380;BME280;37474;59.468;18.040;2022-09-16T05:54:28;98456.13;;;10.31;100.00
50380;BME280;37474;59.468;18.040;2022-09-16T05:56:59;98462.50;;;10.46;100.00
50380;BME280;37474;59.468;18.040;2022-09-16T05:59:34;98469.53;;;10.45;100.00
50380;BME280;37474;59.468;18.040;2022-09-16T06:02:04;98465.97;;;10.46;100.00
50380;BME280;37474;59.468;18.040;2022-09-16T06:04:34;98456.59;;;10.44;100.00
50380;BME280;37474;59.468;18.040;2022-09-16T06:07:02;98475.31;;;10.49;100.00
50380;BME280;37474;59.468;18.040;2022-09-16T06:09:31;98468.03;;;10.43;100.00
50380;BME280;37474;59.468;18.040;2022-09-16T06:12:01;98459.91;;;10.46;100.00
50380;BME280;37474;59.468;18.040;2022-09-16T06:14:29;98467.56;;;10.57;100.00
50380;BME280;37474;59.468;18.040;2022-09-16T06:16:58;98479.41;;;10.61;100.00
50380;BME280;37474;59.468;18.040;2022-09-16T06:19:29;98480.22;;;10.62;100.00
50380;BME280;37474;59.468;18.040;2022-09-16T06:21:57;98472.94;;;10.56;100.00
50380;BME280;37474;59.468;18.040;2022-09-16T06:24:28;98472.81;;;10.57;100.00
50380;BME280;37474;59.468;18.040;2022-09-16T06:26:56;98474.84;;;10.63;100.00
50380;BME280;37474;59.468;18.040;2022-09-16T06:29:24;98488.03;;;10.71;100.00
50380;BME280;37474;59.468;18.040;2022-09-16T06:31:52;98483.72;;;10.80;100.00
50380;BME280;37474;59.468;18.040;2022-09-16T06:34:26;98485.91;;;10.85;100.00
50380;BME280;37474;59.468;18.040;2022-09-16T06:36:54;98480.44;;;10.78;100.00
50380;BME280;37474;59.468;18.040;2022-09-16T06:39:22;98485.22;;;10.82;100.00
50380;BME280;37474;59.468;18.040;2022-09-16T06:41:51;98487.50;;;10.95;100.00
50380;BME280;37474;59.468;18.040;2022-09-16T06:44:20;98496.34;;;10.94;100.00
50380;BME280;37474;59.468;18.040;2022-09-16T06:46:48;98479.50;;;10.97;100.00
50380;BME280;37474;59.468;18.040;2022-09-16T06:49:16;98483.47;;;11.01;100.00
50380;BME280;37474;59.468;18.040;2022-09-16T06:51:46;98494.56;;;11.12;100.00
50380;BME280;37474;59.468;18.040;2022-09-16T06:54:14;98501.41;;;11.23;100.00
50380;BME280;37474;59.468;18.040;2022-09-16T06:56:44;98493.63;;;11.31;100.00
50380;BME280;37474;59.468;18.040;2022-09-16T06:59:16;98504.19;;;11.39;100.00
50380;BME280;37474;59.468;18.040;2022-09-16T07:01:56;98502.25;;;11.41;100.00
50380;BME280;37474;59.468;18.040;2022-09-16T07:04:25;98486.75;;;11.30;100.00
50380;BME280;37474;59.468;18.040;2022-09-16T07:06:57;98502.66;;;11.19;100.00
50380;BME280;37474;59.468;18.040;2022-09-16T07:09:43;98497.72;;;11.16;100.00
50380;BME280;37474;59.468;18.040;2022-09-16T07:12:13;98505.38;;;11.27;100.00
50380;BME280;37474;59.468;18.040;2022-09-16T07:14:47;98505.75;;;11.32;100.00
50380;BME280;37474;59.468;18.040;2022-09-16T07:17:15;98503.56;;;11.45;100.00
50380;BME280;37474;59.468;18.040;2022-09-16T07:19:43;98499.69;;;11.32;100.00
50380;BME280;37474;59.468;18.040;2022-09-16T07:22:14;98503.28;;;11.48;100.00
50380;BME280;37474;59.468;18.040;2022-09-16T07:24:44;98507.16;;;11.44;100.00
50380;BME280;37474;59.468;18.040;2022-09-16T07:27:12;98521.69;;;11.57;100.00
50380;BME280;37474;59.468;18.040;2022-09-16T07:29:42;98515.34;;;11.41;100.00
50380;BME280;37474;59.468;18.040;2022-09-16T07:32:12;98521.78;;;11.47;100.00
50380;BME280;37474;59.468;18.040;2022-09-16T07:34:40;98502.97;;;11.52;100.00
50380;BME280;37474;59.468;18.040;2022-09-16T07:37:12;98511.47;;;11.81;100.00
50380;BME280;37474;59.468;18.040;2022-09-16T07:39:42;98521.03;;;11.72;100.00
50380;BME280;37474;59.468;18.040;2022-09-16T07:42:10;98512.63;;;11.69;100.00
50380;BME280;37474;59.468;18.040;2022-09-16T07:44:40;98522.78;;;11.82;100.00
50380;BME280;37474;59.468;18.040;2022-09-16T07:47:07;98528.44;;;11.59;100.00
50380;BME280;37474;59.468;18.040;2022-09-16T07:49:35;98540.16;;;11.83;100.00
50380;BME280;37474;59.468;18.040;2022-09-16T07:52:05;98521.34;;;11.87;100.00
50380;BME280;37474;59.468;18.040;2022-09-16T07:54:37;98534.97;;;12.08;100.00
50380;BME280;37474;59.468;18.040;2022-09-16T07:57:05;98539.47;;;11.98;100.00
50380;BME280;37474;59.468;18.040;2022-09-16T07:59:35;98540.84;;;12.02;100.00
50380;BME280;37474;59.468;18.040;2022-09-16T08:02:04;98541.38;;;12.32;100.00
50380;BME280;37474;59.468;18.040;2022-09-16T08:04:32;98539.31;;;12.43;100.00
50380;BME280;37474;59.468;18.040;2022-09-16T08:07:00;98549.31;;;12.40;100.00
50380;BME280;37474;59.468;18.040;2022-09-16T08:09:30;98554.16;;;12.27;100.00
50380;BME280;37474;59.468;18.040;2022-09-16T08:12:16;98534.94;;;12.26;100.00
50380;BME280;37474;59.468;18.040;2022-09-16T08:14:46;98551.66;;;12.51;100.00
50380;BME280;37474;59.468;18.040;2022-09-16T08:17:14;98548.53;;;12.22;100.00
50380;BME280;37474;59.468;18.040;2022-09-16T08:19:44;98558.56;;;12.26;100.00
50380;BME280;37474;59.468;18.040;2022-09-16T08:22:14;98543.03;;;12.33;100.00
50380;BME280;37474;59.468;18.040;2022-09-16T08:24:42;98557.72;;;12.52;100.00
50380;BME280;37474;59.468;18.040;2022-09-16T08:27:10;98560.72;;;12.57;100.00
50380;BME280;37474;59.468;18.040;2022-09-16T08:29:41;98560.13;;;12.37;100.00
50380;BME280;37474;59.468;18.040;2022-09-16T08:32:08;98551.16;;;12.22;100.00
50380;BME280;37474;59.468;18.040;2022-09-16T08:34:39;98558.25;;;12.55;100.00
50380;BME280;37474;59.468;18.040;2022-09-16T08:37:09;98559.47;;;12.69;100.00
50380;BME280;37474;59.468;18.040;2022-09-16T08:39:36;98559.75;;;12.92;100.00
50380;BME280;37474;59.468;18.040;2022-09-16T08:42:29;98572.34;;;12.80;100.00
50380;BME280;37474;59.468;18.040;2022-09-16T08:45:14;98572.53;;;12.87;100.00
50380;BME280;37474;59.468;18.040;2022-09-16T08:47:58;98575.50;;;12.84;100.00
50380;BME280;37474;59.468;18.040;2022-09-16T08:50:33;98586.16;;;12.82;100.00
50380;BME280;37474;59.468;18.040;2022-09-16T08:53:10;98578.34;;;12.98;100.00
50380;BME280;37474;59.468;18.040;2022-09-16T08:55:46;98567.66;;;12.92;100.00
50380;BME280;37474;59.468;18.040;2022-09-16T08:58:17;98564.38;;;12.98;100.00
50380;BME280;37474;59.468;18.040;2022-09-16T09:00:53;98582.56;;;13.17;100.00
50380;BME280;37474;59.468;18.040;2022-09-16T09:03:32;98576.84;;;13.22;100.00
50380;BME280;37474;59.468;18.040;2022-09-16T09:06:22;98573.44;;;13.37;100.00
50380;BME280;37474;59.468;18.040;2022-09-16T09:09:03;98580.69;;;13.35;100.00
50380;BME280;37474;59.468;18.040;2022-09-16T09:11:44;98582.94;;;13.22;100.00
50380;BME280;37474;59.468;18.040;2022-09-16T09:14:25;98584.06;;;13.20;100.00
50380;BME280;37474;59.468;18.040;2022-09-16T09:17:04;98597.72;;;13.23;100.00
50380;BME280;37474;59.468;18.040;2022-09-16T09:19:44;98600.91;;;13.09;100.00
50380;BME280;37474;59.468;18.040;2022-09-16T09:22:26;98603.34;;;13.02;100.00
50380;BME280;37474;59.468;18.040;2022-09-16T09:25:12;98599.19;;;12.92;100.00
50380;BME280;37474;59.468;18.040;2022-09-16T09:27:53;98606.41;;;12.90;100.00
50380;BME280;37474;59.468;18.040;2022-09-16T09:30:27;98593.34;;;13.06;100.00
50380;BME280;37474;59.468;18.040;2022-09-16T09:33:16;98601.84;;;13.00;100.00
50380;BME280;37474;59.468;18.040;2022-09-16T09:36:17;98606.28;;;12.99;100.00
50380;BME280;37474;59.468;18.040;2022-09-16T09:39:05;98600.97;;;13.17;100.00
50380;BME280;37474;59.468;18.040;2022-09-16T09:41:38;98603.66;;;13.25;100.00
50380;BME280;37474;59.468;18.040;2022-09-16T09:44:29;98598.94;;;13.45;100.00
50380;BME280;37474;59.468;18.040;2022-09-16T09:47:04;98604.94;;;13.21;100.00
50380;BME280;37474;59.468;18.040;2022-09-16T09:49:45;98608.03;;;13.17;100.00
50380;BME280;37474;59.468;18.040;2022-09-16T09:52:19;98611.06;;;13.04;100.00
50380;BME280;37474;59.468;18.040;2022-09-16T09:54:54;98618.13;;;13.29;100.00
50380;BME280;37474;59.468;18.040;2022-09-16T09:57:30;98607.13;;;13.34;100.00
50380;BME280;37474;59.468;18.040;2022-09-16T10:00:11;98598.25;;;13.35;100.00
50380;BME280;37474;59.468;18.040;2022-09-16T10:02:43;98615.25;;;13.65;100.00
50380;BME280;37474;59.468;18.040;2022-09-16T10:05:21;98596.41;;;13.86;100.00
50380;BME280;37474;59.468;18.040;2022-09-16T10:07:52;98601.69;;;14.18;98.11
50380;BME280;37474;59.468;18.040;2022-09-16T10:10:26;98615.03;;;14.33;94.14
50380;BME280;37474;59.468;18.040;2022-09-16T10:12:54;98615.03;;;14.33;97.86
50380;BME280;37474;59.468;18.040;2022-09-16T10:15:26;98615.19;;;14.31;97.51
50380;BME280;37474;59.468;18.040;2022-09-16T10:17:56;98612.72;;;14.14;96.17
50380;BME280;37474;59.468;18.040;2022-09-16T10:20:29;98611.41;;;14.10;98.60
50380;BME280;37474;59.468;18.040;2022-09-16T10:23:04;98613.88;;;14.11;98.99
50380;BME280;37474;59.468;18.040;2022-09-16T10:25:33;98612.38;;;14.08;99.68
50380;BME280;37474;59.468;18.040;2022-09-16T10:28:02;98605.03;;;14.53;96.10
50380;BME280;37474;59.468;18.040;2022-09-16T10:30:31;98617.38;;;14.44;96.19
50380;BME280;37474;59.468;18.040;2022-09-16T10:33:11;98604.13;;;14.77;96.53
50380;BME280;37474;59.468;18.040;2022-09-16T10:35:51;98615.28;;;14.95;92.94
50380;BME280;37474;59.468;18.040;2022-09-16T10:38:22;98621.41;;;14.79;92.23
50380;BME280;37474;59.468;18.040;2022-09-16T10:40:51;98622.59;;;14.60;89.71
50380;BME280;37474;59.468;18.040;2022-09-16T10:43:20;98608.81;;;14.42;92.70
50380;BME280;37474;59.468;18.040;2022-09-16T10:45:51;98620.63;;;14.62;93.85
50380;BME280;37474;59.468;18.040;2022-09-16T10:48:20;98613.34;;;14.81;93.19
50380;BME280;37474;59.468;18.040;2022-09-16T10:50:55;98619.59;;;14.96;90.03
50380;BME280;37474;59.468;18.040;2022-09-16T10:53:28;98626.13;;;15.08;90.00
50380;BME280;37474;59.468;18.040;2022-09-16T10:55:59;98620.25;;;14.90;90.27
50380;BME280;37474;59.468;18.040;2022-09-16T10:58:27;98619.94;;;14.85;90.89
50380;BME280;37474;59.468;18.040;2022-09-16T11:01:07;98622.94;;;14.57;91.13
50380;BME280;37474;59.468;18.040;2022-09-16T11:04:12;98638.13;;;14.55;94.30
50380;BME280;37474;59.468;18.040;2022-09-16T11:06:52;98636.25;;;14.07;94.95
50380;BME280;37474;59.468;18.040;2022-09-16T11:09:30;98666.38;;;13.62;93.07
50380;BME280;37474;59.468;18.040;2022-09-16T11:12:14;98644.50;;;12.68;100.00
50380;BME280;37474;59.468;18.040;2022-09-16T11:14:55;98676.75;;;12.34;100.00
50380;BME280;37474;59.468;18.040;2022-09-16T11:17:41;98687.47;;;12.05;100.00
50380;BME280;37474;59.468;18.040;2022-09-16T11:20:59;98681.59;;;11.66;100.00
50380;BME280;37474;59.468;18.040;2022-09-16T11:23:46;98680.38;;;11.61;100.00
50380;BME280;37474;59.468;18.040;2022-09-16T11:26:22;98682.19;;;11.60;100.00
50380;BME280;37474;59.468;18.040;2022-09-16T11:29:02;98672.50;;;11.61;100.00
50380;BME280;37474;59.468;18.040;2022-09-16T11:34:57;98674.34;;;12.05;100.00
50380;BME280;37474;59.468;18.040;2022-09-16T11:37:33;98664.91;;;12.30;100.00
50380;BME280;37474;59.468;18.040;2022-09-16T11:40:20;98676.63;;;12.62;100.00
50380;BME280;37474;59.468;18.040;2022-09-16T11:43:05;98674.38;;;12.67;100.00
50380;BME280;37474;59.468;18.040;2022-09-16T11:45:45;98673.97;;;12.80;100.00
50380;BME280;37474;59.468;18.040;2022-09-16T11:48:37;98676.19;;;12.92;100.00
50380;BME280;37474;59.468;18.040;2022-09-16T11:51:21;98670.59;;;13.39;100.00
50380;BME280;37474;59.468;18.040;2022-09-16T11:54:02;98659.09;;;13.98;100.00
50380;BME280;37474;59.468;18.040;2022-09-16T11:56:41;98650.50;;;13.80;100.00
50380;BME280;37474;59.468;18.040;2022-09-16T11:59:19;98661.38;;;13.85;100.00
50380;BME280;37474;59.468;18.040;2022-09-16T12:01:55;98674.44;;;14.27;100.00
50380;BME280;37474;59.468;18.040;2022-09-16T12:04:29;98692.66;;;14.04;100.00
50380;BME280;37474;59.468;18.040;2022-09-16T12:07:13;98693.47;;;13.47;100.00
50380;BME280;37474;59.468;18.040;2022-09-16T12:09:50;98696.00;;;13.04;100.00
50380;BME280;37474;59.468;18.040;2022-09-16T12:12:27;98689.91;;;12.60;100.00
50380;BME280;37474;59.468;18.040;2022-09-16T12:15:00;98697.31;;;12.39;100.00
50380;BME280;37474;59.468;18.040;2022-09-16T12:17:36;98688.03;;;12.70;100.00
50380;BME280;37474;59.468;18.040;2022-09-16T12:20:14;98698.28;;;12.82;100.00
50380;BME280;37474;59.468;18.040;2022-09-16T12:22:48;98694.69;;;12.83;100.00
50380;BME280;37474;59.468;18.040;2022-09-16T12:25:23;98701.41;;;12.59;100.00
50380;BME280;37474;59.468;18.040;2022-09-16T12:27:59;98703.19;;;12.59;100.00
50380;BME280;37474;59.468;18.040;2022-09-16T12:30:33;98702.06;;;12.79;100.00
50380;BME280;37474;59.468;18.040;2022-09-16T12:33:07;98703.47;;;12.48;100.00
50380;BME280;37474;59.468;18.040;2022-09-16T12:35:46;98699.13;;;12.38;100.00
50380;BME280;37474;59.468;18.040;2022-09-16T12:38:38;98721.31;;;12.44;100.00
50380;BME280;37474;59.468;18.040;2022-09-16T12:41:24;98719.00;;;12.41;100.00
50380;BME280;37474;59.468;18.040;2022-09-16T12:47:13;98728.88;;;12.29;100.00
50380;BME280;37474;59.468;18.040;2022-09-16T12:50:02;98732.97;;;11.96;100.00
50380;BME280;37474;59.468;18.040;2022-09-16T12:53:11;98726.31;;;12.02;100.00
50380;BME280;37474;59.468;18.040;2022-09-16T12:55:56;98733.06;;;12.04;100.00
50380;BME280;37474;59.468;18.040;2022-09-16T13:01:28;98735.59;;;11.96;100.00
50380;BME280;37474;59.468;18.040;2022-09-16T13:04:02;98731.00;;;11.98;100.00
50380;BME280;37474;59.468;18.040;2022-09-16T13:06:38;98736.22;;;12.26;100.00
50380;BME280;37474;59.468;18.040;2022-09-16T13:09:16;98735.00;;;12.56;100.00
50380;BME280;37474;59.468;18.040;2022-09-16T13:11:55;98734.16;;;12.47;100.00
50380;BME280;37474;59.468;18.040;2022-09-16T13:14:49;98744.53;;;12.57;100.00
50380;BME280;37474;59.468;18.040;2022-09-16T13:17:28;98749.72;;;12.66;100.00
50380;BME280;37474;59.468;18.040;2022-09-16T13:20:03;98747.03;;;12.58;100.00
50380;BME280;37474;59.468;18.040;2022-09-16T13:22:36;98747.69;;;12.78;100.00
50380;BME280;37474;59.468;18.040;2022-09-16T13:25:19;98745.97;;;12.69;100.00
50380;BME280;37474;59.468;18.040;2022-09-16T13:27:55;98752.06;;;12.52;100.00
50380;BME280;37474;59.468;18.040;2022-09-16T13:30:31;98737.94;;;12.53;100.00
50380;BME280;37474;59.468;18.040;2022-09-16T13:36:16;98745.97;;;12.51;100.00
50380;BME280;37474;59.468;18.040;2022-09-16T13:38:44;98745.59;;;12.64;100.00
50380;BME280;37474;59.468;18.040;2022-09-16T13:41:29;98748.50;;;12.96;100.00